KBCE/BCE METAR and TAF weather

Enter ICAO airport designator
Station Type Date Time Source
KBCE METAR 2022/12/08 12:53 UTC NOAA

KBCE 081253Z AUTO 00000KT 10SM CLR M19/M21 A3024 RMK AO2 SLP293 T11891211 $


Station Type Date Time Source
KBCE Decoded METAR 2022/12/08 12:53 UTC NOAA

BRYCE CANYON AIRPORT, UT, United States (KBCE) 37-42N 112-09W 2312M
Dec 08, 2022 - 07:53 AM EST / 2022.12.08 1253 UTC
Wind: Calm:0
Visibility: 10 mile(s):0
Sky conditions: clear
Temperature: -2.0 F (-18.9 C)
Dew Point: -6.0 F (-21.1 C)
Relative Humidity: 82%
Pressure (altimeter): 30.24 in. Hg (1024 hPa)
ob: KBCE 081253Z AUTO 00000KT 10SM CLR M19/M21 A3024 RMK AO2 SLP293 T11891211
cycle: 13

Station Type Date Time Source
KBCE TAF 2022/12/08 12:24 UTC NOAA

TAF KBCE 081122Z 0812/0912 30009KT P6SM SCT250
FM081700 16007KT P6SM SCT250

Example: see airport list